Time;durP1;ratioP1;P1;durP2;ratioP2;P2;SDS_P1;SDS_P2;PMS_P1;PMS_P2;Temp;Humidity;BMP_temperature;BMP_pressure;BME280_temperature;BME280_humidity;BME280_pressure;Samples;Min_cycle;Max_cycle;Signal;HPM_P1;HPM_P2
2022/07/15 00:00:05;;;;;;;651.83;250.50;;;13.70;1.00;;;;;;5071089;28;20206;-84
2022/07/15 00:02:32;;;;;;;653.93;246.27;;;13.70;1.00;;;;;;5073622;28;20191;-84
2022/07/15 00:04:59;;;;;;;647.03;247.33;;;13.60;1.00;;;;;;5074602;28;20196;-84
2022/07/15 00:07:26;;;;;;;647.13;245.17;;;13.50;1.00;;;;;;5074884;28;20195;-84
2022/07/15 00:12:39;;;;;;;;;;;13.40;1.00;;;;;;5074713;28;20317;-84
2022/07/15 00:15:07;;;;;;;653.83;252.37;;;13.30;1.00;;;;;;5074559;28;20051;-83
2022/07/15 00:17:34;;;;;;;644.80;238.10;;;13.30;1.00;;;;;;5074677;28;20190;-84
2022/07/15 00:20:02;;;;;;;644.57;232.37;;;13.20;1.00;;;;;;5074622;28;20201;-84
2022/07/15 00:22:29;;;;;;;647.37;234.13;;;13.10;1.00;;;;;;5074358;28;20191;-84
2022/07/15 00:24:56;;;;;;;646.80;228.93;;;13.10;1.00;;;;;;5074346;28;20230;-84
2022/07/15 00:27:23;;;;;;;644.30;232.70;;;13.10;26.30;;;;;;5074146;28;20252;-83
2022/07/15 00:29:51;;;;;;;643.33;228.10;;;13.00;70.90;;;;;;5074334;28;20195;-84
2022/07/15 00:32:18;;;;;;;642.30;228.07;;;12.90;57.10;;;;;;5074397;28;20283;-83
2022/07/15 00:34:46;;;;;;;642.63;229.60;;;12.90;58.90;;;;;;5073959;28;20279;-84
2022/07/15 00:37:13;;;;;;;639.53;221.60;;;12.90;96.80;;;;;;5074249;28;20205;-84
2022/07/15 00:39:40;;;;;;;641.80;224.90;;;12.90;99.90;;;;;;5074156;28;20202;-84
2022/07/15 00:42:07;;;;;;;639.57;223.53;;;12.80;99.90;;;;;;5073859;28;20210;-84
2022/07/15 00:44:34;;;;;;;642.80;224.00;;;12.80;99.90;;;;;;5073540;28;20602;-85
2022/07/15 00:47:03;;;;;;;643.60;224.87;;;12.80;99.90;;;;;;5073789;28;20200;-85
2022/07/15 00:49:30;;;;;;;640.97;221.33;;;12.70;99.90;;;;;;5073989;28;20197;-85
2022/07/15 00:51:59;;;;;;;640.47;217.33;;;12.70;99.90;;;;;;5073657;28;20204;-85
2022/07/15 00:54:28;;;;;;;639.57;217.43;;;12.60;99.90;;;;;;5073617;28;20214;-85
2022/07/15 00:56:56;;;;;;;637.70;213.23;;;12.60;99.90;;;;;;5073660;28;20193;-86
2022/07/15 00:59:25;;;;;;;639.23;216.63;;;12.60;99.90;;;;;;5073845;28;20192;-85
2022/07/15 01:01:53;;;;;;;641.30;214.60;;;12.50;99.90;;;;;;5073505;28;20204;-85
2022/07/15 01:04:23;;;;;;;638.40;212.47;;;12.50;99.90;;;;;;5073915;28;20194;-85
2022/07/15 01:06:50;;;;;;;638.57;213.17;;;12.50;99.90;;;;;;5073713;28;20677;-84
2022/07/15 01:09:19;;;;;;;637.80;209.83;;;12.50;99.90;;;;;;5073293;28;20201;-85
2022/07/15 01:11:47;;;;;;;641.50;209.97;;;12.50;99.90;;;;;;5072873;28;20204;-85
2022/07/15 01:14:14;;;;;;;639.63;214.63;;;12.40;99.90;;;;;;5072865;28;20222;-84
2022/07/15 01:16:41;;;;;;;635.97;212.07;;;12.40;99.90;;;;;;5073158;28;20642;-85
2022/07/15 01:19:08;;;;;;;;;;;12.40;1.00;;;;;;5072950;28;20624;-85
2022/07/15 01:21:36;;;;;;;635.63;207.53;;;12.40;1.00;;;;;;5072872;28;20211;-85
2022/07/15 01:24:03;;;;;;;;;;;12.40;1.00;;;;;;5073209;28;20657;-85
2022/07/15 01:26:30;;;;;;;637.93;205.70;;;12.30;1.00;;;;;;5073132;28;20185;-85
2022/07/15 01:28:57;;;;;;;635.03;208.80;;;12.40;1.00;;;;;;5073251;28;20197;-85
2022/07/15 01:31:24;;;;;;;638.17;209.10;;;12.30;1.00;;;;;;5073235;28;20246;-85
2022/07/15 01:33:53;;;;;;;638.73;205.33;;;12.30;1.00;;;;;;5072891;28;20219;-84
2022/07/15 01:36:20;;;;;;;643.37;208.13;;;12.30;1.00;;;;;;5072835;28;20204;-84
2022/07/15 01:38:49;;;;;;;637.87;209.67;;;12.30;1.00;;;;;;5073048;28;20208;-85
2022/07/15 01:41:16;;;;;;;636.77;206.93;;;12.30;1.00;;;;;;5072732;28;20269;-84
2022/07/15 01:43:43;;;;;;;642.17;208.97;;;12.30;1.00;;;;;;5072628;28;20216;-85
2022/07/15 01:46:10;;;;;;;639.50;204.80;;;12.30;1.00;;;;;;5072835;28;20661;-85
2022/07/15 01:51:22;;;;;;;636.20;207.93;;;12.20;1.00;;;;;;5072445;28;20330;-85
2022/07/15 01:53:50;;;;;;;640.57;203.03;;;12.20;1.00;;;;;;5072620;28;20248;-85
2022/07/15 01:56:17;;;;;;;635.83;204.53;;;12.20;1.00;;;;;;5072510;28;20249;-84
2022/07/15 01:58:44;;;;;;;636.03;204.20;;;12.10;1.00;;;;;;5072405;28;20547;-85
2022/07/15 02:01:11;;;;;;;635.90;203.50;;;12.00;1.00;;;;;;5072712;28;20192;-85
2022/07/15 02:03:38;;;;;;;634.43;201.47;;;12.00;1.00;;;;;;5072822;28;20266;-84
2022/07/15 02:06:06;;;;;;;635.93;207.73;;;12.00;1.00;;;;;;5072411;28;20288;-84
2022/07/15 02:08:33;;;;;;;633.30;201.67;;;12.00;1.00;;;;;;5071989;28;20608;-84
2022/07/15 02:11:02;;;;;;;635.57;201.87;;;12.00;1.00;;;;;;5072114;28;20189;-84
2022/07/15 02:13:29;;;;;;;637.07;209.77;;;11.90;1.00;;;;;;5072073;28;20216;-84
2022/07/15 02:15:56;;;;;;;639.17;211.80;;;12.00;8.90;;;;;;5072187;28;20203;-84
2022/07/15 02:18:23;;;;;;;636.57;208.90;;;11.90;1.00;;;;;;5072088;28;20283;-85
2022/07/15 02:20:50;;;;;;;630.67;194.77;;;11.90;8.00;;;;;;5072037;28;20660;-84
2022/07/15 02:23:17;;;;;;;636.33;209.50;;;11.90;99.90;;;;;;5072077;28;20192;-85
2022/07/15 02:25:44;;;;;;;632.73;195.97;;;11.90;99.90;;;;;;5071917;28;20224;-84
2022/07/15 02:28:13;;;;;;;630.20;203.33;;;11.80;99.90;;;;;;5072017;28;20554;-84
2022/07/15 02:30:44;;;;;;;633.10;202.33;;;11.80;99.90;;;;;;5072052;28;20188;-85
2022/07/15 02:33:13;;;;;;;636.77;209.00;;;11.80;99.90;;;;;;5072328;28;20197;-84
2022/07/15 02:35:41;;;;;;;630.20;199.10;;;11.80;99.90;;;;;;5072140;28;20655;-84
2022/07/15 02:38:09;;;;;;;636.27;204.57;;;11.70;99.90;;;;;;5071594;28;20200;-86
2022/07/15 02:40:36;;;;;;;632.77;205.47;;;11.70;99.90;;;;;;5072142;28;20192;-85
2022/07/15 02:43:04;;;;;;;629.70;196.60;;;11.70;99.90;;;;;;5072089;28;20193;-85
2022/07/15 02:45:36;;;;;;;628.03;199.70;;;11.70;99.90;;;;;;5071772;28;20195;-85
2022/07/15 02:48:03;;;;;;;630.40;197.90;;;11.60;1.00;;;;;;5072130;28;20181;-84
2022/07/15 02:50:31;;;;;;;630.73;197.20;;;11.60;99.90;;;;;;5071771;28;20650;-85
2022/07/15 02:52:58;;;;;;;634.17;199.03;;;11.70;99.90;;;;;;5072032;28;20282;-85
2022/07/15 02:55:25;;;;;;;628.70;195.10;;;11.60;1.00;;;;;;5071816;28;20238;-84
2022/07/15 02:57:56;;;;;;;632.13;199.83;;;11.70;1.00;;;;;;5073288;28;20203;-86
2022/07/15 03:00:24;;;;;;;631.50;197.40;;;11.70;1.00;;;;;;5087849;28;20198;-85
2022/07/15 03:02:52;;;;;;;444.40;140.63;;;11.70;1.00;;;;;;5077154;28;20222;-83
2022/07/15 03:05:20;;;;;;;626.90;193.07;;;11.70;1.00;;;;;;5077573;28;20195;-87
2022/07/15 03:07:53;;;;;;;612.87;188.50;;;11.70;1.00;;;;;;5075169;28;20195;-85
2022/07/15 03:13:35;;;;;;;624.00;192.20;;;11.70;99.90;;;;;;5009631;28;20277;-88
2022/07/15 03:16:04;;;;;;;454.00;138.60;;;11.70;1.00;;;;;;5023194;28;20203;-86
2022/07/15 03:18:36;;;;;;;626.87;195.27;;;11.70;1.00;;;;;;5092829;28;20228;-88
2022/07/15 03:21:04;;;;;;;627.60;204.60;;;11.70;1.00;;;;;;5091470;28;20275;-88
2022/07/15 03:23:32;;;;;;;628.13;197.90;;;11.70;1.00;;;;;;5092363;28;20188;-87
2022/07/15 03:25:59;;;;;;;628.10;200.27;;;11.80;1.00;;;;;;5091996;28;20235;-85
2022/07/15 03:28:30;;;;;;;625.43;211.00;;;11.80;1.00;;;;;;5092233;28;20211;-88
2022/07/15 03:30:59;;;;;;;628.13;213.43;;;11.80;20.40;;;;;;5094059;28;20192;-87
2022/07/15 03:33:30;;;;;;;629.50;213.83;;;11.80;61.00;;;;;;5093575;28;20193;-89
2022/07/15 03:35:59;;;;;;;629.90;211.00;;;11.90;99.90;;;;;;5093619;28;20222;-87
2022/07/15 03:38:27;;;;;;;457.07;146.13;;;11.90;99.90;;;;;;5074595;28;20227;-86
2022/07/15 03:40:57;;;;;;;630.37;196.07;;;12.00;99.90;;;;;;5077192;28;20182;-88
2022/07/15 03:43:57;;;;;;;628.73;204.20;;;12.00;99.90;;;;;;5082190;28;20187;-89
2022/07/15 03:53:10;;;;;;;632.90;208.23;;;12.40;1.00;;;;;;5037385;28;20263;-85
2022/07/15 03:55:38;;;;;;;633.57;214.00;;;12.60;99.90;;;;;;5036038;28;20224;-87
2022/07/15 03:58:08;;;;;;;644.37;232.83;;;13.30;1.00;;;;;;5056556;28;20194;-87
2022/07/15 04:04:22;;;;;;;;;;;15.30;99.90;;;;;;5070419;28;20228;-87
2022/07/15 04:06:49;;;;;;;668.50;287.77;;;16.50;1.00;;;;;;5073508;28;20056;-86
2022/07/15 04:09:21;;;;;;;491.43;163.60;;;17.30;99.90;;;;;;5074515;28;20559;-86
2022/07/15 04:11:58;;;;;;;683.80;327.83;;;18.00;1.00;;;;;;5092134;28;20232;-86
2022/07/15 04:14:54;;;;;;;670.27;176.33;;;18.70;1.00;;;;;;5079230;28;20239;-89
2022/07/15 04:17:22;;;;;;;686.20;351.70;;;19.40;99.90;;;;;;5085663;28;20264;-86
2022/07/15 04:19:53;;;;;;;685.33;347.03;;;20.10;99.90;;;;;;5075427;28;20295;-85
2022/07/15 04:22:21;;;;;;;691.37;407.17;;;20.70;1.00;;;;;;5080418;28;20193;-89
2022/07/15 04:24:55;;;;;;;;;;;21.20;1.00;;;;;;5074277;28;20248;-88
2022/07/15 04:27:24;;;;;;;;;;;21.60;99.90;;;;;;5074934;28;20065;-84
2022/07/15 04:29:54;;;;;;;707.87;481.53;;;22.00;1.00;;;;;;5074235;28;20061;-86
2022/07/15 04:32:21;;;;;;;706.03;491.50;;;22.20;1.00;;;;;;5077277;28;20629;-85
2022/07/15 04:34:48;;;;;;;705.33;501.53;;;22.30;1.00;;;;;;5078018;28;20268;-86
2022/07/15 04:37:24;;;;;;;;;;;22.10;1.00;;;;;;5079690;28;20762;-86
2022/07/15 04:39:52;;;;;;;;;;;22.10;1.00;;;;;;5074364;28;19958;-86
2022/07/15 04:42:22;;;;;;;;;;;22.30;1.00;;;;;;5074776;28;19968;-88
2022/07/15 04:44:49;;;;;;;717.70;541.27;;;22.90;1.00;;;;;;5075640;28;20390;-85
2022/07/15 04:47:17;;;;;;;722.40;560.45;;;23.40;1.00;;;;;;5086248;28;20252;-85
2022/07/15 04:52:33;;;;;;;732.97;572.37;;;24.10;1.00;;;;;;5074069;28;20702;-88
2022/07/15 04:55:05;;;;;;;734.30;599.80;;;24.40;1.00;;;;;;5073325;28;20220;-89
2022/07/15 04:57:32;;;;;;;734.73;612.17;;;24.70;99.90;;;;;;5073859;28;20212;-89
2022/07/15 05:00:02;;;;;;;736.70;630.20;;;24.90;99.90;;;;;;5073791;28;20201;-89
2022/07/15 05:02:32;;;;;;;736.63;632.73;;;25.20;99.90;;;;;;5073751;28;20231;-87
2022/07/15 05:04:59;;;;;;;738.23;633.90;;;25.00;99.90;;;;;;5075978;28;20245;-83
2022/07/15 05:07:27;;;;;;;738.63;646.37;;;24.40;99.90;;;;;;5078622;28;20562;-88
2022/07/15 05:09:55;;;;;;;743.47;645.83;;;23.80;99.90;;;;;;5073769;28;20983;-87
2022/07/15 05:12:24;;;;;;;745.57;633.93;;;23.10;99.90;;;;;;5073265;28;20441;-88
2022/07/15 05:14:53;;;;;;;738.57;619.97;;;22.40;99.90;;;;;;5072372;28;20200;-89
2022/07/15 05:17:28;;;;;;;736.87;608.57;;;21.80;99.90;;;;;;5072897;28;20696;-89
2022/07/15 05:19:56;;;;;;;739.27;584.03;;;21.40;99.90;;;;;;5073893;28;20191;-88
2022/07/15 05:22:23;;;;;;;735.17;570.67;;;20.90;99.90;;;;;;5074491;28;20185;-87
2022/07/15 05:24:50;;;;;;;723.93;542.37;;;20.50;99.90;;;;;;5073448;28;20243;-86
2022/07/15 05:27:17;;;;;;;;;;;20.00;99.90;;;;;;5073719;28;20196;-88
2022/07/15 05:29:46;;;;;;;723.70;525.83;;;19.80;99.90;;;;;;5073703;28;20373;-87
2022/07/15 05:32:13;;;;;;;732.73;496.10;;;19.50;99.90;;;;;;5072621;28;20656;-87
2022/07/15 05:34:40;;;;;;;717.80;491.27;;;19.20;99.90;;;;;;5072946;28;20215;-87
2022/07/15 05:37:07;;;;;;;723.13;476.47;;;18.90;99.90;;;;;;5073614;28;20538;-88
2022/07/15 05:39:35;;;;;;;723.70;467.07;;;19.20;1.00;;;;;;5072755;28;20286;-87
2022/07/15 05:42:03;;;;;;;709.47;457.37;;;20.00;1.00;;;;;;5071995;28;20203;-88
2022/07/15 05:44:30;;;;;;;706.90;449.90;;;20.30;99.90;;;;;;5072336;28;20189;-88
2022/07/15 05:46:58;;;;;;;721.70;471.77;;;20.70;1.00;;;;;;5072270;28;20562;-88
2022/07/15 05:49:25;;;;;;;735.20;491.80;;;21.70;1.00;;;;;;5073349;28;20608;-91
2022/07/15 05:51:52;;;;;;;725.73;530.77;;;22.80;1.00;;;;;;5072839;28;20101;-88
2022/07/15 05:54:19;;;;;;;740.97;574.13;;;23.90;99.90;;;;;;5073021;28;20176;-87
2022/07/15 05:56:46;;;;;;;740.40;520.53;;;24.00;99.90;;;;;;5073181;28;20723;-87
2022/07/15 05:59:13;;;;;;;706.40;475.13;;;23.50;99.90;;;;;;5073383;28;20565;-89
2022/07/15 06:01:40;;;;;;;739.70;595.00;;;22.80;99.90;;;;;;5072865;28;20195;-89
2022/07/15 06:04:09;;;;;;;755.50;594.50;;;22.30;99.90;;;;;;5072946;28;20203;-90
2022/07/15 06:06:36;;;;;;;728.30;459.93;;;21.70;99.90;;;;;;5072715;28;20196;-89
2022/07/15 06:09:03;;;;;;;733.63;551.50;;;21.30;99.90;;;;;;5072909;28;20200;-90
2022/07/15 06:11:30;;;;;;;712.33;305.83;;;20.80;99.90;;;;;;5072709;28;20203;-89
2022/07/15 06:14:09;;;;;;;;;;;20.40;99.90;;;;;;5080694;28;20196;-91
2022/07/15 06:16:53;;;;;;;723.07;376.93;;;20.00;99.90;;;;;;5096972;28;20375;-92
2022/07/15 06:19:36;;;;;;;772.40;532.50;;;19.60;99.90;;;;;;5093015;28;20219;-93
2022/07/15 06:22:06;;;;;;;743.33;504.23;;;19.50;99.90;;;;;;5079034;28;20191;-91
2022/07/15 06:24:33;;;;;;;744.40;508.83;;;19.40;99.90;;;;;;5073980;28;20290;-88
2022/07/15 06:27:00;;;;;;;719.60;504.07;;;19.50;99.90;;;;;;5072608;28;20226;-88
2022/07/15 06:29:29;;;;;;;700.37;441.63;;;19.50;99.90;;;;;;5072559;28;20195;-89
2022/07/15 06:31:56;;;;;;;698.33;332.93;;;19.40;99.90;;;;;;5072847;28;20192;-88
2022/07/15 06:34:24;;;;;;;673.00;286.77;;;19.60;99.90;;;;;;5072630;28;20200;-89
2022/07/15 06:36:51;;;;;;;717.87;401.27;;;19.80;99.90;;;;;;5072605;28;20220;-87
2022/07/15 06:39:27;;;;;;;742.27;478.93;;;19.90;99.90;;;;;;5078332;28;20180;-91
2022/07/15 06:42:25;;;;;;;730.40;474.27;;;19.80;99.90;;;;;;5089925;28;20210;-87
2022/07/15 06:47:42;;;;;;;719.23;474.67;;;19.70;99.90;;;;;;5076433;28;20223;-89
2022/07/15 06:50:22;;;;;;;710.73;469.93;;;19.70;99.90;;;;;;5072816;28;20224;-91
2022/07/15 06:53:02;;;;;;;726.40;481.47;;;19.70;99.90;;;;;;5091324;28;20255;-89
2022/07/15 06:55:46;;;;;;;730.00;487.33;;;19.80;99.90;;;;;;5096268;28;20237;-90
2022/07/15 06:58:13;;;;;;;740.47;491.13;;;19.90;99.90;;;;;;5084395;28;20218;-87
2022/07/15 07:00:40;;;;;;;749.63;497.27;;;20.20;99.90;;;;;;5072136;28;20549;-88
2022/07/15 07:03:07;;;;;;;735.30;501.37;;;20.40;99.90;;;;;;5071948;28;20192;-87
2022/07/15 07:05:36;;;;;;;736.17;518.30;;;20.90;99.90;;;;;;5072407;28;20196;-87
2022/07/15 07:08:03;;;;;;;735.87;530.67;;;21.60;99.90;;;;;;5072257;28;20207;-88
2022/07/15 07:10:30;;;;;;;741.53;561.33;;;22.80;99.90;;;;;;5073571;28;20200;-87
2022/07/15 07:12:57;;;;;;;754.85;597.60;;;23.70;99.90;;;;;;5075780;28;20200;-87
2022/07/15 07:15:24;;;;;;;749.27;608.80;;;23.60;99.90;;;;;;5076129;28;20216;-88
2022/07/15 07:17:52;;;;;;;771.57;625.17;;;23.20;99.90;;;;;;5076308;28;20219;-87
2022/07/15 07:20:19;;;;;;;770.53;626.47;;;22.60;99.90;;;;;;5076294;28;20200;-87
2022/07/15 07:22:48;;;;;;;773.93;593.37;;;21.90;99.90;;;;;;5075751;28;20113;-89
2022/07/15 07:25:16;;;;;;;773.93;598.43;;;21.20;99.90;;;;;;5075804;28;20235;-92
2022/07/15 07:27:44;;;;;;;766.90;568.67;;;20.60;99.90;;;;;;5076400;28;20288;-90
2022/07/15 07:30:11;;;;;;;729.07;560.30;;;20.20;99.90;;;;;;5075841;28;20232;-89
2022/07/15 07:32:38;;;;;;;;;;;19.70;99.90;;;;;;5076304;28;20070;-88
2022/07/15 07:35:25;;;;;;;718.13;509.70;;;19.40;99.90;;;;;;5084327;28;20202;-90
2022/07/15 07:37:54;;;;;;;725.13;498.90;;;19.20;99.90;;;;;;5082124;28;20200;-88
2022/07/15 07:40:21;;;;;;;;;;;19.20;99.90;;;;;;5076086;28;20208;-88
2022/07/15 07:42:48;;;;;;;717.87;470.83;;;19.30;99.90;;;;;;5083723;28;20385;-89
2022/07/15 07:45:15;;;;;;;;;;;19.40;99.90;;;;;;5075952;28;20105;-90
2022/07/15 07:47:43;;;;;;;;;;;19.20;99.90;;;;;;5075930;28;19949;-88
2022/07/15 07:50:11;;;;;;;724.30;450.70;;;19.00;99.90;;;;;;5075463;28;20200;-88
2022/07/15 07:52:38;;;;;;;730.87;447.23;;;18.80;99.90;;;;;;5075325;28;20250;-85
2022/07/15 07:55:08;;;;;;;705.93;437.43;;;18.70;99.90;;;;;;5075178;28;20200;-89
2022/07/15 07:57:36;;;;;;;712.63;436.10;;;19.00;99.90;;;;;;5075620;28;20609;-89
2022/07/15 08:00:05;;;;;;;707.03;440.77;;;19.30;99.90;;;;;;5075491;28;20192;-88
2022/07/15 08:02:32;;;;;;;701.40;434.13;;;19.40;99.90;;;;;;5074983;28;20192;-89
2022/07/15 08:05:00;;;;;;;706.97;444.47;;;19.50;99.90;;;;;;5075313;28;20200;-89
2022/07/15 08:07:27;;;;;;;706.27;452.10;;;19.70;99.90;;;;;;5075893;28;20258;-89
2022/07/15 08:09:54;;;;;;;721.17;468.10;;;20.30;99.90;;;;;;5075159;28;20196;-89
2022/07/15 08:12:23;;;;;;;718.63;480.83;;;21.00;99.90;;;;;;5075287;28;20258;-88
2022/07/15 08:14:51;;;;;;;714.53;488.67;;;21.60;99.90;;;;;;5074830;28;20189;-88
2022/07/15 08:17:18;;;;;;;713.27;504.57;;;21.60;99.90;;;;;;5074949;28;20255;-88
2022/07/15 08:19:45;;;;;;;718.93;510.63;;;21.40;99.90;;;;;;5074713;28;20561;-89
2022/07/15 08:22:12;;;;;;;720.00;518.53;;;21.20;99.90;;;;;;5073460;28;20200;-88
2022/07/15 08:24:39;;;;;;;718.77;513.53;;;21.00;99.90;;;;;;5074719;28;20235;-89
2022/07/15 08:27:06;;;;;;;721.17;520.10;;;20.80;99.90;;;;;;5074812;28;20180;-88
2022/07/15 08:29:34;;;;;;;730.40;521.50;;;21.10;99.90;;;;;;5075114;28;20273;-88
2022/07/15 08:32:02;;;;;;;722.40;527.33;;;21.50;99.90;;;;;;5074624;28;20648;-88
2022/07/15 08:34:29;;;;;;;;;;;22.00;99.90;;;;;;5075236;28;20234;-88
2022/07/15 08:36:56;;;;;;;724.10;549.80;;;22.30;99.90;;;;;;5074812;28;20184;-88
2022/07/15 08:39:23;;;;;;;736.67;568.80;;;22.70;99.90;;;;;;5074512;28;20200;-89
2022/07/15 08:41:52;;;;;;;727.75;577.70;;;23.50;99.90;;;;;;5074393;28;20207;-88
2022/07/15 08:44:19;;;;;;;;;;;23.80;99.90;;;;;;5074792;28;19932;-89
2022/07/15 08:46:48;;;;;;;;;;;23.70;99.90;;;;;;5074617;28;20388;-88
2022/07/15 08:49:16;;;;;;;;;;;23.40;99.90;;;;;;5074559;28;20380;-88
2022/07/15 08:51:44;;;;;;;733.73;612.13;;;23.00;99.90;;;;;;5074067;28;20509;-88
2022/07/15 08:54:12;;;;;;;731.70;604.10;;;22.70;99.90;;;;;;5074352;28;20200;-88
2022/07/15 08:56:39;;;;;;;733.63;596.27;;;22.30;99.90;;;;;;5074258;28;20212;-88
2022/07/15 08:59:08;;;;;;;742.70;588.17;;;21.90;99.90;;;;;;5074017;28;20196;-88
2022/07/15 09:01:43;;;;;;;730.33;571.33;;;21.50;99.90;;;;;;5055981;28;20192;-88
2022/07/15 09:04:11;;;;;;;730.50;558.17;;;21.00;99.90;;;;;;5074109;28;20176;-87
2022/07/15 09:06:40;;;;;;;727.20;537.60;;;20.80;99.90;;;;;;5074227;28;20192;-89
2022/07/15 09:09:28;;;;;;;719.80;524.80;;;20.80;99.90;;;;;;5073877;28;20668;-88
2022/07/15 09:12:01;;;;;;;715.30;513.97;;;21.20;99.90;;;;;;5073945;28;20180;-88
2022/07/15 09:14:29;;;;;;;714.53;521.37;;;21.70;99.90;;;;;;5073862;28;20272;-89
2022/07/15 09:17:21;;;;;;;716.77;531.67;;;22.00;99.90;;;;;;5073871;28;20220;-88
2022/07/15 09:20:00;;;;;;;727.80;548.27;;;22.30;99.90;;;;;;5073987;28;20245;-88
2022/07/15 09:22:35;;;;;;;721.97;557.93;;;22.80;99.90;;;;;;5073730;28;20183;-87
2022/07/15 09:25:05;;;;;;;725.33;569.17;;;22.80;99.90;;;;;;5073536;28;20227;-87
2022/07/15 09:27:34;;;;;;;726.40;568.33;;;22.60;99.90;;;;;;5073652;28;20208;-86
2022/07/15 09:36:02;;;;;;;719.60;537.80;;;21.10;99.90;;;;;;5073315;28;20246;-88
2022/07/15 09:38:32;;;;;;;717.97;520.83;;;20.70;99.90;;;;;;5073372;28;20198;-88
2022/07/15 09:41:00;;;;;;;716.17;507.50;;;20.30;99.90;;;;;;5073798;28;20534;-87
2022/07/15 09:43:27;;;;;;;719.63;503.87;;;20.30;99.90;;;;;;5073322;28;20201;-88
2022/07/15 09:46:01;;;;;;;722.40;502.20;;;20.70;99.90;;;;;;5073417;28;20195;-87
2022/07/15 09:48:29;;;;;;;724.50;496.70;;;21.10;99.90;;;;;;5073389;28;20292;-87
2022/07/15 09:51:03;;;;;;;719.13;500.43;;;21.30;99.90;;;;;;5073193;28;20624;-91
2022/07/15 09:53:36;;;;;;;718.70;500.43;;;21.40;99.90;;;;;;5073367;28;20226;-93
2022/07/15 09:56:05;;;;;;;716.10;500.97;;;21.30;99.90;;;;;;5073288;28;20212;-87
2022/07/15 09:58:38;;;;;;;713.47;509.93;;;21.30;99.90;;;;;;5073346;28;20204;-91
2022/07/15 10:01:08;;;;;;;719.20;513.00;;;21.40;99.90;;;;;;5073146;28;20188;-92
2022/07/15 10:03:35;;;;;;;731.87;526.17;;;21.60;99.90;;;;;;5073379;28;20207;-88
2022/07/15 10:19:23;;;;;;;758.50;644.43;;;21.80;99.90;;;;;;5129535;27;1350972;-90
2022/07/15 10:22:15;;;;;;;737.23;587.37;;;21.60;99.90;;;;;;5175905;27;20222;-93
2022/07/15 10:24:57;;;;;;;739.73;562.90;;;21.30;99.90;;;;;;5160884;27;20193;-88
2022/07/15 10:27:38;;;;;;;744.33;546.10;;;21.00;99.90;;;;;;5151735;27;20213;-88
2022/07/15 10:30:08;;;;;;;736.23;527.47;;;20.80;99.90;;;;;;5151442;27;20188;-88
2022/07/15 10:33:19;;;;;;;726.37;522.00;;;20.90;99.90;;;;;;5151865;27;20197;-88
2022/07/15 10:35:55;;;;;;;732.53;511.27;;;21.20;99.90;;;;;;5114204;27;20658;-91
2022/07/15 10:38:34;;;;;;;725.20;519.70;;;21.50;99.90;;;;;;5151743;27;20201;-92
2022/07/15 10:41:12;;;;;;;716.33;521.53;;;21.60;99.90;;;;;;5151892;27;20234;-93
2022/07/15 10:43:44;;;;;;;725.57;531.50;;;21.40;99.90;;;;;;5150817;27;20194;-88
2022/07/15 10:46:26;;;;;;;721.97;533.60;;;21.20;99.90;;;;;;5151552;27;20189;-89
2022/07/15 10:49:09;;;;;;;719.73;535.13;;;21.00;99.90;;;;;;5151423;27;20174;-89
2022/07/15 10:51:49;;;;;;;723.40;522.47;;;20.80;99.90;;;;;;5151491;27;20257;-91
2022/07/15 10:54:40;;;;;;;722.33;527.93;;;20.80;99.90;;;;;;5150828;27;20710;-87
2022/07/15 10:57:07;;;;;;;723.23;519.57;;;21.00;99.90;;;;;;5151283;27;20209;-87
2022/07/15 10:59:41;;;;;;;722.33;530.57;;;21.50;99.90;;;;;;5151347;27;20194;-87
2022/07/15 11:02:17;;;;;;;726.13;539.60;;;22.00;99.90;;;;;;5150985;27;20174;-87
2022/07/15 11:04:45;;;;;;;729.87;558.60;;;22.40;99.90;;;;;;5151111;27;20213;-87
2022/07/15 11:07:31;;;;;;;733.13;567.63;;;22.50;99.90;;;;;;5151066;27;20293;-87
2022/07/15 11:10:15;;;;;;;730.40;567.47;;;22.40;99.90;;;;;;5150795;27;20623;-87
2022/07/15 11:13:01;;;;;;;730.80;569.90;;;22.20;99.90;;;;;;5150890;27;20174;-87
2022/07/15 11:15:28;;;;;;;729.93;565.60;;;22.00;99.90;;;;;;5151019;27;20235;-87
2022/07/15 11:17:57;;;;;;;733.10;572.43;;;21.80;99.90;;;;;;5148412;27;20230;-87
2022/07/15 11:20:42;;;;;;;728.87;569.93;;;21.80;99.90;;;;;;5144992;27;20187;-91
2022/07/15 11:23:10;;;;;;;730.40;573.67;;;22.00;99.90;;;;;;5141162;27;20202;-87
2022/07/15 11:25:40;;;;;;;734.33;576.33;;;22.20;99.90;;;;;;5137026;27;20193;-87
2022/07/15 11:28:09;;;;;;;738.23;582.57;;;22.30;99.90;;;;;;5136562;27;20222;-88
2022/07/15 11:30:40;;;;;;;732.70;578.93;;;22.20;99.90;;;;;;5136569;27;20190;-88
2022/07/15 11:33:09;;;;;;;729.90;576.27;;;22.10;99.90;;;;;;5136571;27;20553;-87
2022/07/15 11:35:49;;;;;;;731.07;569.17;;;21.90;99.90;;;;;;5136450;27;20674;-87
2022/07/15 11:38:19;;;;;;;725.63;570.20;;;21.80;99.90;;;;;;5136929;27;20243;-87
2022/07/15 11:46:19;;;;;;;726.97;563.30;;;22.20;99.90;;;;;;5136592;27;20181;-88
2022/07/15 11:48:47;;;;;;;730.70;579.80;;;22.50;99.90;;;;;;5136235;27;20225;-87
2022/07/15 11:51:14;;;;;;;734.40;588.90;;;22.70;99.90;;;;;;5136669;27;20194;-88
2022/07/15 11:53:46;;;;;;;730.43;579.40;;;22.70;99.90;;;;;;5135989;27;20210;-88
2022/07/15 11:56:14;;;;;;;735.73;595.43;;;22.60;99.90;;;;;;5136741;27;20216;-88
2022/07/15 11:58:43;;;;;;;732.50;589.93;;;22.50;99.90;;;;;;5136119;27;20665;-87
2022/07/15 12:01:12;;;;;;;735.33;586.13;;;22.30;99.90;;;;;;5136060;27;20235;-87
2022/07/15 12:03:44;;;;;;;737.40;583.00;;;22.00;99.90;;;;;;5136517;27;20193;-92
2022/07/15 12:06:18;;;;;;;730.77;580.07;;;21.90;99.90;;;;;;5136127;27;20627;-90
2022/07/15 12:08:49;;;;;;;732.10;578.50;;;22.00;99.90;;;;;;5135897;27;20202;-88
2022/07/15 12:11:23;;;;;;;737.37;586.90;;;22.50;99.90;;;;;;5135957;27;20186;-89
2022/07/15 12:17:07;;;;;;;738.40;601.50;;;23.10;99.90;;;;;;5157396;27;20262;-90
2022/07/15 12:20:08;;;;;;;;;;;;;;;;;;;;;
2022/07/15 12:22:36;;;;;;;736.47;599.60;;;23.20;99.90;;;;;;5151253;27;20170;-90
2022/07/15 12:25:05;;;;;;;740.63;609.33;;;23.10;99.90;;;;;;5135807;27;20190;-88
2022/07/15 12:27:33;;;;;;;742.70;619.07;;;23.00;99.90;;;;;;5135821;27;20214;-88
2022/07/15 12:30:02;;;;;;;739.73;609.60;;;23.10;99.90;;;;;;5134625;27;20201;-87
2022/07/15 12:32:29;;;;;;;745.30;625.80;;;23.10;99.90;;;;;;5135685;27;20194;-88
2022/07/15 12:34:58;;;;;;;746.80;619.97;;;23.20;99.90;;;;;;5135331;27;20652;-87
2022/07/15 12:37:27;;;;;;;744.03;622.57;;;23.40;99.90;;;;;;5135586;27;20271;-87
2022/07/15 12:39:56;;;;;;;750.13;639.03;;;23.30;99.90;;;;;;5135517;27;20213;-87
2022/07/15 12:42:24;;;;;;;742.50;625.53;;;23.20;99.90;;;;;;5135085;27;20732;-87
2022/07/15 12:45:11;;;;;;;744.23;629.37;;;23.00;99.90;;;;;;5135110;27;20565;-86
2022/07/15 12:47:56;;;;;;;742.80;619.73;;;22.70;99.90;;;;;;5134957;27;20209;-87
2022/07/15 12:59:02;;;;;;;741.70;611.77;;;23.10;99.90;;;;;;5140261;27;20194;-90
2022/07/15 13:01:30;;;;;;;738.17;608.40;;;23.10;99.90;;;;;;5134664;27;20230;-88
2022/07/15 13:03:57;;;;;;;739.60;610.03;;;23.10;99.90;;;;;;5134886;27;20215;-88
2022/07/15 13:06:24;;;;;;;746.13;628.00;;;22.90;99.90;;;;;;5134586;27;20674;-88
2022/07/15 13:08:53;;;;;;;747.40;613.60;;;22.80;99.90;;;;;;5143593;27;20217;-91
2022/07/15 13:11:20;;;;;;;741.67;614.17;;;22.70;99.90;;;;;;5149795;27;20194;-89
2022/07/15 13:13:47;;;;;;;745.10;620.83;;;22.60;99.90;;;;;;5134739;27;20217;-87
2022/07/15 13:16:16;;;;;;;748.17;616.73;;;22.70;99.90;;;;;;5134726;27;20193;-87
2022/07/15 13:18:43;;;;;;;747.53;620.60;;;22.70;99.90;;;;;;5134144;27;20226;-87
2022/07/15 13:21:10;;;;;;;749.50;623.50;;;22.90;99.90;;;;;;5133945;27;20209;-87
2022/07/15 13:23:37;;;;;;;742.03;615.57;;;23.20;99.90;;;;;;5133810;27;20209;-87
2022/07/15 13:26:04;;;;;;;745.37;621.57;;;23.10;99.90;;;;;;5133719;27;20194;-87
2022/07/15 13:28:31;;;;;;;741.50;615.00;;;23.00;99.90;;;;;;5133665;27;20210;-87
2022/07/15 13:30:58;;;;;;;743.77;620.00;;;22.90;99.90;;;;;;5133678;27;20572;-86
2022/07/15 13:36:49;;;;;;;744.27;619.40;;;23.20;99.90;;;;;;5133442;27;20201;-87